createdAt,value
2022-09-12T00:01:26.694Z,1.90
2022-09-12T00:03:58.511Z,1.88
2022-09-12T00:06:28.728Z,2.10
2022-09-12T00:09:01.718Z,2.10
2022-09-12T00:11:29.238Z,2.17
2022-09-12T00:13:58.567Z,2.08
2022-09-12T00:16:27.639Z,1.85
2022-09-12T00:18:54.420Z,1.70
2022-09-12T00:21:22.507Z,1.65
2022-09-12T00:23:49.906Z,1.42
2022-09-12T00:28:44.851Z,1.52
2022-09-12T00:31:14.587Z,1.77
2022-09-12T00:33:42.263Z,1.95
2022-09-12T00:36:11.588Z,1.80
2022-09-12T00:38:41.865Z,1.25
2022-09-12T00:41:16.749Z,1.67
2022-09-12T00:43:46.598Z,1.70
2022-09-12T00:46:13.206Z,1.83
2022-09-12T00:48:46.122Z,1.65
2022-09-12T00:51:14.020Z,1.50
2022-09-12T00:53:44.085Z,1.80
2022-09-12T00:56:12.401Z,1.52
2022-09-12T00:58:54.965Z,1.80
2022-09-12T01:01:21.741Z,1.55
2022-09-12T01:03:48.488Z,1.83
2022-09-12T01:06:37.068Z,2.00
2022-09-12T01:11:35.808Z,1.70
2022-09-12T01:14:02.686Z,1.85
2022-09-12T01:16:29.846Z,1.80
2022-09-12T01:19:31.809Z,2.00
2022-09-12T01:22:13.498Z,1.85
2022-09-12T01:24:55.164Z,1.70
2022-09-12T01:27:59.405Z,1.90
2022-09-12T01:30:44.010Z,1.80
2022-09-12T01:33:38.520Z,1.70
2022-09-12T01:36:17.164Z,1.85
2022-09-12T01:38:50.272Z,1.52
2022-09-12T01:41:25.508Z,1.73
2022-09-12T01:43:58.242Z,1.55
2022-09-12T01:46:39.106Z,1.70
2022-09-12T01:49:16.348Z,1.20
2022-09-12T01:51:48.276Z,1.65
2022-09-12T01:54:27.179Z,1.92
2022-09-12T01:56:58.026Z,1.50
2022-09-12T01:59:39.394Z,1.80
2022-09-12T02:02:16.846Z,1.20
2022-09-12T02:08:33.298Z,1.58
2022-09-12T02:11:08.557Z,1.60
2022-09-12T02:13:41.305Z,1.90
2022-09-12T02:16:21.580Z,1.40
2022-09-12T02:18:54.921Z,1.20
2022-09-12T02:21:24.692Z,1.63
2022-09-12T02:24:02.975Z,1.73
2022-09-12T02:26:35.523Z,1.90
2022-09-12T02:29:03.166Z,1.80
2022-09-12T02:31:45.772Z,1.83
2022-09-12T02:34:22.212Z,2.13
2022-09-12T02:36:57.405Z,1.50
2022-09-12T02:39:24.874Z,1.80
2022-09-12T02:41:52.552Z,1.73
2022-09-12T02:44:20.437Z,1.63
2022-09-12T02:46:51.630Z,1.40
2022-09-12T02:49:19.740Z,1.58
2022-09-12T02:51:47.728Z,1.25
2022-09-12T02:54:16.843Z,1.80
2022-09-12T02:56:45.448Z,1.55
2022-09-12T02:59:18.911Z,1.35
2022-09-12T03:01:55.829Z,1.17
2022-09-12T03:04:48.621Z,1.48
2022-09-12T03:07:18.233Z,1.63
2022-09-12T03:09:52.782Z,1.65
2022-09-12T03:12:47.050Z,1.45
2022-09-12T03:15:28.342Z,1.92
2022-09-12T03:18:01.000Z,1.83
2022-09-12T03:20:45.558Z,2.30
2022-09-12T03:23:33.805Z,1.98
2022-09-12T03:26:07.265Z,2.53
2022-09-12T03:28:35.522Z,2.08
2022-09-12T03:31:16.589Z,1.77
2022-09-12T03:33:43.992Z,2.08
2022-09-12T03:38:46.410Z,1.85
2022-09-12T03:41:13.265Z,1.90
2022-09-12T03:43:40.382Z,2.05
2022-09-12T03:46:07.090Z,2.83
2022-09-12T03:48:33.892Z,1.80
2022-09-12T03:51:02.346Z,2.22
2022-09-12T03:53:30.402Z,2.30
2022-09-12T03:55:57.821Z,1.98
2022-09-12T04:00:51.776Z,1.92
2022-09-12T04:03:19.318Z,2.22
2022-09-12T04:05:46.968Z,2.35
2022-09-12T04:08:14.114Z,2.47
2022-09-12T04:10:41.645Z,2.10
2022-09-12T04:13:08.481Z,2.28
2022-09-12T04:15:35.126Z,2.03
2022-09-12T04:18:05.724Z,2.47
2022-09-12T04:20:32.838Z,2.55
2022-09-12T04:22:59.480Z,2.72
2022-09-12T04:25:27.121Z,3.28
2022-09-12T04:27:53.779Z,3.05
2022-09-12T04:30:20.444Z,2.90
2022-09-12T04:32:47.104Z,2.65
2022-09-12T04:35:14.017Z,2.70
2022-09-12T04:37:40.778Z,2.85
2022-09-12T04:40:08.079Z,1.95
2022-09-12T04:42:34.806Z,2.47
2022-09-12T04:45:01.536Z,2.65
2022-09-12T04:47:28.782Z,2.38
2022-09-12T04:49:55.428Z,2.90
2022-09-12T04:52:22.288Z,2.35
2022-09-12T04:54:48.987Z,2.10
2022-09-12T04:57:15.713Z,2.33
2022-09-12T04:59:42.556Z,2.17
2022-09-12T05:02:09.256Z,2.55
2022-09-12T05:04:36.091Z,3.08
2022-09-12T05:07:03.119Z,2.97
2022-09-12T05:09:29.778Z,2.33
2022-09-12T05:12:04.108Z,2.35
2022-09-12T05:14:32.877Z,2.00
2022-09-12T05:17:01.509Z,2.28
2022-09-12T05:19:30.036Z,2.00
2022-09-12T05:21:57.012Z,1.98
2022-09-12T05:24:24.746Z,1.77
2022-09-12T05:26:51.724Z,2.15
2022-09-12T05:29:18.919Z,2.60
2022-09-12T05:31:45.827Z,2.03
2022-09-12T05:34:12.694Z,2.75
2022-09-12T05:36:39.581Z,2.60
2022-09-12T05:39:06.433Z,2.75
2022-09-12T05:41:34.540Z,2.80
2022-09-12T05:44:03.679Z,2.65
2022-09-12T05:46:41.614Z,3.05
2022-09-12T05:51:39.371Z,3.00
2022-09-12T05:54:07.862Z,3.25
2022-09-12T05:56:42.216Z,2.88
2022-09-12T05:59:15.025Z,3.20
2022-09-12T06:01:42.679Z,3.10
2022-09-12T06:04:09.948Z,3.15
2022-09-12T06:06:43.378Z,3.22
2022-09-12T06:09:10.584Z,2.95
2022-09-12T06:11:40.717Z,2.70
2022-09-12T06:14:09.117Z,2.72
2022-09-12T06:16:37.197Z,2.78
2022-09-12T06:19:27.780Z,2.70
2022-09-12T06:21:54.644Z,3.00
2022-09-12T06:24:21.771Z,2.72
2022-09-12T06:26:49.780Z,2.83
2022-09-12T06:29:16.731Z,3.13
2022-09-12T06:31:44.102Z,3.83
2022-09-12T06:36:43.572Z,2.72
2022-09-12T06:39:13.897Z,2.80
2022-09-12T06:41:43.996Z,2.90
2022-09-12T06:44:14.569Z,3.28
2022-09-12T06:46:41.624Z,2.90
2022-09-12T06:49:08.591Z,2.75
2022-09-12T06:51:38.157Z,3.42
2022-09-12T06:54:05.629Z,3.75
2022-09-12T06:56:32.492Z,3.30
2022-09-12T06:58:59.863Z,3.58
2022-09-12T07:03:57.076Z,3.17
2022-09-12T07:06:29.766Z,2.40
2022-09-12T07:08:58.646Z,3.05
2022-09-12T07:11:28.310Z,2.35
2022-09-12T07:13:56.492Z,2.38
2022-09-12T07:16:23.823Z,2.58
2022-09-12T07:18:56.196Z,2.65
2022-09-12T07:21:22.897Z,3.00
2022-09-12T07:23:51.896Z,3.00
2022-09-12T07:26:19.046Z,2.58
2022-09-12T07:28:45.701Z,2.42
2022-09-12T07:31:18.051Z,2.38
2022-09-12T07:33:44.970Z,2.45
2022-09-12T07:36:13.805Z,2.60
2022-09-12T07:38:41.098Z,2.33
2022-09-12T07:43:44.826Z,2.25
2022-09-12T07:46:11.862Z,2.45
2022-09-12T07:48:39.418Z,2.15
2022-09-12T07:51:09.957Z,2.35
2022-09-12T07:53:41.528Z,1.98
2022-09-12T07:56:10.331Z,1.88
2022-09-12T07:58:40.325Z,2.05
2022-09-12T08:01:18.697Z,2.05
2022-09-12T08:03:48.054Z,1.60
2022-09-12T08:06:55.972Z,1.83
2022-09-12T08:13:02.980Z,1.85
2022-09-12T08:15:31.133Z,1.60
2022-09-12T08:17:57.834Z,1.60
2022-09-12T08:20:28.294Z,0.93
2022-09-12T08:22:55.218Z,1.38
2022-09-12T08:25:21.880Z,1.10
2022-09-12T08:27:48.559Z,1.55
2022-09-12T08:30:15.316Z,0.80
2022-09-12T08:32:41.995Z,1.10
2022-09-12T08:35:08.777Z,1.00
2022-09-12T08:37:35.434Z,1.05
2022-09-12T08:40:02.488Z,1.45
2022-09-12T08:42:49.602Z,1.10
2022-09-12T08:45:22.638Z,0.88
2022-09-12T08:47:50.357Z,1.00
2022-09-12T08:50:20.588Z,1.10
2022-09-12T08:53:08.858Z,1.10
2022-09-12T08:55:43.207Z,0.90
2022-09-12T08:58:23.093Z,0.90
2022-09-12T09:01:08.922Z,0.90
2022-09-12T09:03:57.220Z,1.20
2022-09-12T09:06:47.092Z,0.80
2022-09-12T09:09:22.134Z,0.90
2022-09-12T09:12:28.990Z,1.00
2022-09-12T09:15:22.135Z,0.85
2022-09-12T09:17:52.964Z,0.95
2022-09-12T09:20:44.859Z,0.80
2022-09-12T09:23:38.845Z,1.10
2022-09-12T09:26:26.541Z,0.88
2022-09-12T09:28:59.846Z,1.15
2022-09-12T09:31:33.091Z,1.10
2022-09-12T09:34:00.479Z,1.10
2022-09-12T09:36:53.620Z,1.27
2022-09-12T09:39:27.239Z,1.10
2022-09-12T09:42:03.036Z,1.20
2022-09-12T09:44:30.456Z,1.02
2022-09-12T09:46:59.532Z,1.10
2022-09-12T09:49:31.309Z,0.90
2022-09-12T09:52:00.881Z,0.85
2022-09-12T09:54:40.571Z,1.08
2022-09-12T09:57:35.313Z,0.70
2022-09-12T10:00:28.945Z,0.80
2022-09-12T10:03:03.053Z,1.20
2022-09-12T10:05:31.315Z,1.02
2022-09-12T10:07:58.695Z,1.20
2022-09-12T10:10:25.701Z,1.05
2022-09-12T10:13:18.069Z,1.05
2022-09-12T10:16:02.060Z,0.90
2022-09-12T10:18:37.587Z,1.00
2022-09-12T10:21:34.689Z,1.00
2022-09-12T10:24:21.531Z,0.90
2022-09-12T10:26:57.060Z,1.10
2022-09-12T10:29:33.304Z,1.10
2022-09-12T10:32:04.610Z,0.80
2022-09-12T10:34:37.121Z,1.17
2022-09-12T10:37:38.119Z,0.80
2022-09-12T10:40:07.916Z,0.93
2022-09-12T10:42:50.379Z,0.80
2022-09-12T10:45:37.384Z,1.17
2022-09-12T10:48:31.716Z,0.95
2022-09-12T10:51:00.128Z,0.88
2022-09-12T10:53:40.029Z,1.00
2022-09-12T10:56:14.196Z,0.95
2022-09-12T10:58:59.899Z,1.30
2022-09-12T11:01:26.567Z,0.90
2022-09-12T11:04:21.952Z,1.05
2022-09-12T11:07:14.665Z,0.90
2022-09-12T11:09:50.726Z,1.20
2022-09-12T11:12:42.088Z,0.95
2022-09-12T11:15:17.756Z,1.00
2022-09-12T11:17:56.699Z,0.80
2022-09-12T11:20:57.156Z,1.10
2022-09-12T11:23:49.965Z,0.93
2022-09-12T11:26:28.334Z,1.00
2022-09-12T11:29:19.713Z,0.80
2022-09-12T11:31:52.325Z,0.90
2022-09-12T11:34:45.643Z,0.90
2022-09-12T11:37:45.786Z,0.80
2022-09-12T11:40:21.454Z,0.68
2022-09-12T11:42:51.319Z,0.80
2022-09-12T11:45:25.398Z,0.80
2022-09-12T11:47:55.340Z,0.82
2022-09-12T11:50:28.372Z,0.68
2022-09-12T11:53:02.472Z,0.90
2022-09-12T11:55:37.466Z,0.70
2022-09-12T11:58:05.013Z,0.90
2022-09-12T12:00:42.690Z,0.80
2022-09-12T12:05:58.981Z,0.85
2022-09-12T12:08:29.570Z,0.70
2022-09-12T12:11:03.915Z,0.50
2022-09-12T12:13:39.312Z,0.65
2022-09-12T12:16:14.494Z,0.73
2022-09-12T12:18:43.275Z,0.57
2022-09-12T12:21:31.978Z,0.60
2022-09-12T12:24:07.488Z,0.80
2022-09-12T12:26:40.453Z,1.00
2022-09-12T12:29:11.226Z,0.85
2022-09-12T12:32:03.974Z,0.65
2022-09-12T12:34:48.733Z,0.95
2022-09-12T12:37:29.622Z,1.00
2022-09-12T12:40:08.000Z,1.10
2022-09-12T12:42:34.802Z,1.27
2022-09-12T12:45:27.620Z,1.23
2022-09-12T12:48:08.581Z,1.10
2022-09-12T12:50:35.484Z,1.30
2022-09-12T12:53:16.366Z,1.05
2022-09-12T12:55:42.972Z,1.15
2022-09-12T12:58:31.674Z,1.30
2022-09-12T13:01:20.264Z,1.13
2022-09-12T13:03:53.184Z,1.10
2022-09-12T13:06:39.694Z,1.10
2022-09-12T13:09:26.820Z,1.50
2022-09-12T13:12:01.116Z,1.17
2022-09-12T13:14:47.615Z,1.30
2022-09-12T13:17:37.914Z,1.17
2022-09-12T13:20:29.767Z,1.20
2022-09-12T13:22:57.273Z,1.50
2022-09-12T13:25:30.753Z,1.17
2022-09-12T13:28:07.350Z,1.10
2022-09-12T13:30:37.298Z,1.25
2022-09-12T13:33:16.513Z,1.17
2022-09-12T13:35:56.780Z,1.42
2022-09-12T13:38:54.461Z,1.52
2022-09-12T13:41:36.033Z,1.10
2022-09-12T13:44:03.954Z,1.13
2022-09-12T13:46:34.136Z,1.10
2022-09-12T13:49:06.268Z,1.20
2022-09-12T13:51:33.141Z,1.10
2022-09-12T13:54:03.641Z,1.20
2022-09-12T13:56:30.281Z,1.38
2022-09-12T13:58:59.157Z,1.15
2022-09-12T14:01:38.376Z,1.20
2022-09-12T14:04:40.563Z,1.08
2022-09-12T14:07:20.371Z,1.13
2022-09-12T14:10:37.792Z,1.10
2022-09-12T14:13:21.231Z,0.93
2022-09-12T14:15:50.536Z,1.15
2022-09-12T14:18:37.686Z,1.00
2022-09-12T14:21:20.213Z,1.13
2022-09-12T14:23:48.793Z,1.40
2022-09-12T14:26:17.728Z,1.30
2022-09-12T14:28:47.377Z,1.00
2022-09-12T14:31:15.653Z,1.20
2022-09-12T14:33:54.534Z,1.15
2022-09-12T14:36:25.049Z,1.02
2022-09-12T14:38:56.696Z,1.40
2022-09-12T14:41:43.841Z,1.13
2022-09-12T14:44:25.676Z,1.00
2022-09-12T14:46:52.509Z,0.90
2022-09-12T14:49:32.210Z,0.90
2022-09-12T14:52:04.734Z,1.10
2022-09-12T14:54:32.114Z,1.05
2022-09-12T14:57:17.606Z,1.30
2022-09-12T14:59:44.242Z,0.82
2022-09-12T15:02:13.742Z,0.93
2022-09-12T15:04:51.949Z,1.08
2022-09-12T15:07:34.755Z,1.25
2022-09-12T15:10:04.760Z,0.77
2022-09-12T15:12:31.480Z,1.20
2022-09-12T15:15:14.908Z,0.85
2022-09-12T15:17:41.853Z,1.00
2022-09-12T15:20:10.014Z,1.10
2022-09-12T15:22:37.737Z,0.85
2022-09-12T15:25:06.005Z,0.80
2022-09-12T15:27:32.983Z,0.82
2022-09-12T15:29:59.687Z,1.20
2022-09-12T15:32:30.610Z,4.13
2022-09-12T15:34:57.268Z,1.40
2022-09-12T15:37:24.589Z,0.80
2022-09-12T15:39:51.838Z,1.17
2022-09-12T15:42:26.745Z,1.00
2022-09-12T15:44:53.934Z,1.02
2022-09-12T15:49:48.302Z,1.00
2022-09-12T15:52:16.339Z,1.15
2022-09-12T15:54:43.822Z,1.00
2022-09-12T15:57:10.510Z,1.00
2022-09-12T15:59:37.154Z,0.93
2022-09-12T16:02:03.896Z,0.90
2022-09-12T16:04:30.904Z,1.13
2022-09-12T16:06:57.740Z,0.93
2022-09-12T16:09:24.435Z,0.90
2022-09-12T16:11:51.104Z,0.93
2022-09-12T16:14:19.277Z,1.05
2022-09-12T16:16:55.995Z,0.93
2022-09-12T16:19:22.964Z,1.20
2022-09-12T16:21:49.681Z,1.10
2022-09-12T16:24:16.394Z,1.10
2022-09-12T16:26:43.109Z,1.05
2022-09-12T16:29:12.798Z,0.95
2022-09-12T16:31:40.002Z,1.23
2022-09-12T16:34:07.223Z,1.52
2022-09-12T16:36:34.151Z,2.75
2022-09-12T16:41:27.919Z,1.67
2022-09-12T16:43:55.297Z,1.20
2022-09-12T16:46:25.069Z,0.90
2022-09-12T16:48:58.017Z,1.05
2022-09-12T16:51:27.703Z,1.13
2022-09-12T16:53:55.189Z,0.90
2022-09-12T16:56:22.441Z,1.40
2022-09-12T16:58:49.264Z,0.88
2022-09-12T17:01:24.583Z,1.23
2022-09-12T17:03:58.986Z,1.00
2022-09-12T17:06:27.010Z,1.10
2022-09-12T17:08:55.274Z,1.13
2022-09-12T17:11:24.944Z,1.35
2022-09-12T17:14:04.378Z,1.00
2022-09-12T17:16:37.041Z,1.85
2022-09-12T17:19:04.818Z,1.80
2022-09-12T17:21:31.689Z,2.47
2022-09-12T17:23:59.165Z,1.75
2022-09-12T17:26:26.661Z,1.90
2022-09-12T17:28:53.353Z,1.60
2022-09-12T17:31:20.691Z,1.60
2022-09-12T17:33:47.812Z,2.25
2022-09-12T17:36:16.803Z,2.20
2022-09-12T17:38:45.387Z,2.40
2022-09-12T17:41:19.070Z,1.95
2022-09-12T17:43:55.662Z,1.67
2022-09-12T17:46:24.511Z,1.27
2022-09-12T17:48:53.453Z,1.42
2022-09-12T17:51:22.112Z,1.58
2022-09-12T17:53:49.094Z,1.75
2022-09-12T17:56:15.864Z,1.13
2022-09-12T17:58:42.593Z,1.75
2022-09-12T18:01:33.862Z,1.50
2022-09-12T18:04:01.398Z,1.73
2022-09-12T18:06:29.173Z,2.78
2022-09-12T18:08:59.044Z,1.75
2022-09-12T18:11:25.732Z,2.05
2022-09-12T18:13:52.340Z,2.08
2022-09-12T18:16:19.015Z,1.77
2022-09-12T18:18:45.747Z,1.58
2022-09-12T18:21:13.077Z,1.63
2022-09-12T18:26:08.905Z,1.90
2022-09-12T18:28:37.429Z,1.77
2022-09-12T18:31:09.767Z,2.03
2022-09-12T18:33:36.520Z,1.92
2022-09-12T18:36:08.174Z,1.70
2022-09-12T18:38:35.167Z,1.67
2022-09-12T18:41:07.200Z,2.08
2022-09-12T18:43:34.302Z,1.40
2022-09-12T18:46:07.537Z,1.80
2022-09-12T18:48:35.163Z,1.80
2022-09-12T18:51:17.859Z,1.77
2022-09-12T18:53:52.000Z,1.70
2022-09-12T18:56:19.385Z,1.80
2022-09-12T18:58:50.963Z,1.60
2022-09-12T19:01:23.036Z,1.95
2022-09-12T19:03:50.136Z,2.00
2022-09-12T19:06:21.340Z,2.03
2022-09-12T19:08:49.457Z,1.80
2022-09-12T19:11:17.332Z,2.30
2022-09-12T19:13:45.666Z,2.33
2022-09-12T19:16:15.623Z,1.88
2022-09-12T19:18:42.744Z,1.73
2022-09-12T19:21:15.202Z,2.00
2022-09-12T19:23:42.360Z,1.77
2022-09-12T19:26:10.790Z,1.95
2022-09-12T19:28:37.478Z,1.90
2022-09-12T19:31:08.715Z,2.08
2022-09-12T19:33:35.825Z,1.85
2022-09-12T19:36:04.936Z,1.77
2022-09-12T19:38:31.893Z,1.83
2022-09-12T19:41:00.145Z,1.55
2022-09-12T19:43:26.794Z,1.80
2022-09-12T19:45:53.951Z,1.75
2022-09-12T19:48:21.287Z,1.98
2022-09-12T19:50:48.495Z,1.65
2022-09-12T19:53:16.934Z,1.90
2022-09-12T19:55:44.935Z,1.90
2022-09-12T19:58:14.727Z,1.92
2022-09-12T20:00:41.531Z,1.90
2022-09-12T20:03:08.561Z,2.35
2022-09-12T20:05:38.454Z,1.85
2022-09-12T20:08:22.014Z,1.90
2022-09-12T20:10:48.690Z,1.80
2022-09-12T20:13:15.354Z,1.90
2022-09-12T20:15:42.126Z,2.00
2022-09-12T20:18:09.206Z,2.00
2022-09-12T20:20:35.886Z,1.90
2022-09-12T20:23:02.672Z,2.30
2022-09-12T20:25:29.395Z,2.22
2022-09-12T20:28:00.024Z,2.00
2022-09-12T20:30:27.749Z,1.70
2022-09-12T20:32:54.386Z,1.90
2022-09-12T20:35:22.710Z,1.67
2022-09-12T20:37:49.567Z,2.00
2022-09-12T20:40:16.476Z,2.25
2022-09-12T20:42:43.150Z,1.83
2022-09-12T20:45:10.081Z,1.58
2022-09-12T20:47:36.726Z,1.83
2022-09-12T20:50:03.625Z,1.95
2022-09-12T20:52:30.263Z,1.80
2022-09-12T20:54:57.105Z,2.10
2022-09-12T20:57:23.884Z,1.83
2022-09-12T20:59:50.714Z,1.83
2022-09-12T21:02:17.509Z,2.10
2022-09-12T21:04:44.376Z,1.60
2022-09-12T21:07:11.144Z,1.65
2022-09-12T21:09:37.791Z,1.77
2022-09-12T21:12:04.649Z,1.80
2022-09-12T21:14:31.282Z,1.95
2022-09-12T21:16:57.952Z,2.05
2022-09-12T21:19:24.749Z,2.72
2022-09-12T21:21:51.401Z,2.00
2022-09-12T21:24:18.101Z,1.83
2022-09-12T21:26:44.776Z,1.90
2022-09-12T21:29:11.510Z,2.13
2022-09-12T21:31:38.291Z,1.90
2022-09-12T21:34:04.986Z,2.20
2022-09-12T21:36:31.654Z,1.75
2022-09-12T21:38:59.361Z,1.98
2022-09-12T21:41:26.034Z,1.70
2022-09-12T21:43:53.043Z,1.98
2022-09-12T21:46:19.927Z,1.90
2022-09-12T21:48:46.703Z,1.75
2022-09-12T21:51:13.351Z,1.90
2022-09-12T21:53:40.283Z,1.95
2022-09-12T21:56:08.390Z,1.50
2022-09-12T21:58:36.047Z,1.60
2022-09-12T22:01:03.286Z,1.95
2022-09-12T22:03:30.340Z,1.70
2022-09-12T22:06:01.966Z,1.90
2022-09-12T22:08:29.931Z,2.00
2022-09-12T22:11:02.057Z,2.08
2022-09-12T22:13:32.147Z,2.05
2022-09-12T22:16:00.375Z,2.13
2022-09-12T22:18:27.047Z,2.22
2022-09-12T22:21:06.885Z,2.50
2022-09-12T22:23:52.401Z,1.95
2022-09-12T22:26:19.257Z,1.75
2022-09-12T22:28:47.504Z,2.38
2022-09-12T22:31:15.196Z,2.15
2022-09-12T22:33:41.979Z,2.63
2022-09-12T22:36:09.946Z,2.28
2022-09-12T22:38:36.903Z,2.72
2022-09-12T22:41:09.198Z,1.50
2022-09-12T22:43:37.022Z,2.20
2022-09-12T22:46:12.397Z,2.40
2022-09-12T22:48:39.567Z,2.25
2022-09-12T22:51:06.848Z,2.88
2022-09-12T22:53:34.484Z,2.45
2022-09-12T22:56:01.376Z,2.03
2022-09-12T22:58:28.020Z,2.58
2022-09-12T23:00:54.944Z,2.60
2022-09-12T23:03:21.980Z,2.55
2022-09-12T23:05:49.012Z,2.80
2022-09-12T23:08:17.225Z,3.10
2022-09-12T23:10:44.081Z,2.63
2022-09-12T23:13:11.346Z,2.58
2022-09-12T23:15:38.300Z,2.22
2022-09-12T23:18:05.343Z,2.40
2022-09-12T23:20:32.110Z,2.30
2022-09-12T23:22:58.818Z,2.40
2022-09-12T23:25:26.151Z,2.03
2022-09-12T23:30:21.313Z,2.95
2022-09-12T23:32:49.151Z,2.90
2022-09-12T23:35:20.172Z,2.55
2022-09-12T23:37:47.464Z,2.67
2022-09-12T23:42:41.034Z,2.30
2022-09-12T23:45:08.241Z,2.03
2022-09-12T23:47:34.874Z,2.13
2022-09-12T23:50:01.556Z,1.90
2022-09-12T23:53:01.204Z,1.80
2022-09-12T23:55:27.853Z,1.98
2022-09-12T23:57:54.490Z,2.05
